Weather at Senipah Heliport

Public forecast

Using degrees Celsius for public forecast. Weather courtesy of forecast.io.

Closest aviation weather report (METAR) to Senipah Heliport

Closest report is Sultan Aji Muhamad Sulaiman Airport, 23.2 nm (43.1 km) SW. Retrieved 2022/01/29 13:30 UTC (9 minutes ago):

WALL 291330Z 32002KT 9000 FEW020 27/24 Q1010 NOSIG

Closest aviation forecast (TAF) to Senipah Heliport

Forecast is more than 6 hours old.

Closest forecast is Sultan Aji Muhamad Sulaiman Airport, 23.2 nm (43.1 km) SW. Retrieved 2022/01/29 06:00 UTC (8 hours ago):

TAF WALL 290500Z 2906/3012 19004KT 9999 FEW020 PROB30 TEMPO 2912/2915 8000 -RA FEW017CB SCT018 BECMG 2915/2917 36003KT